sensor_id;sensor_type;location;lat;lon;timestamp;temperature;humidity
3784;DHT22;1907;49.238;9.262;2022-08-19T00:00:16;20.80;99.90
3784;DHT22;1907;49.238;9.262;2022-08-19T00:02:43;20.90;99.90
3784;DHT22;1907;49.238;9.262;2022-08-19T00:05:09;20.80;99.90
3784;DHT22;1907;49.238;9.262;2022-08-19T00:07:36;20.80;99.90
3784;DHT22;1907;49.238;9.262;2022-08-19T00:10:06;20.80;99.90
3784;DHT22;1907;49.238;9.262;2022-08-19T00:12:33;20.80;99.90
3784;DHT22;1907;49.238;9.262;2022-08-19T00:14:59;20.80;99.90
3784;DHT22;1907;49.238;9.262;2022-08-19T00:17:25;20.80;99.90
3784;DHT22;1907;49.238;9.262;2022-08-19T00:19:50;20.80;99.90
3784;DHT22;1907;49.238;9.262;2022-08-19T00:22:16;20.80;99.90
3784;DHT22;1907;49.238;9.262;2022-08-19T00:24:44;20.80;99.90
3784;DHT22;1907;49.238;9.262;2022-08-19T00:27:11;20.80;99.90
3784;DHT22;1907;49.238;9.262;2022-08-19T00:29:37;20.80;99.90
3784;DHT22;1907;49.238;9.262;2022-08-19T00:32:04;20.80;99.90
3784;DHT22;1907;49.238;9.262;2022-08-19T00:34:29;20.80;99.90
3784;DHT22;1907;49.238;9.262;2022-08-19T00:36:56;20.80;99.90
3784;DHT22;1907;49.238;9.262;2022-08-19T00:39:23;20.80;99.90
3784;DHT22;1907;49.238;9.262;2022-08-19T00:41:50;20.80;99.90
3784;DHT22;1907;49.238;9.262;2022-08-19T00:44:22;20.80;99.90
3784;DHT22;1907;49.238;9.262;2022-08-19T00:46:49;20.80;99.90
3784;DHT22;1907;49.238;9.262;2022-08-19T00:49:20;20.80;99.90
3784;DHT22;1907;49.238;9.262;2022-08-19T00:51:55;20.80;99.90
3784;DHT22;1907;49.238;9.262;2022-08-19T00:54:23;20.70;99.90
3784;DHT22;1907;49.238;9.262;2022-08-19T00:56:50;20.70;99.90
3784;DHT22;1907;49.238;9.262;2022-08-19T00:59:16;20.70;99.90
3784;DHT22;1907;49.238;9.262;2022-08-19T01:01:44;20.70;99.90
3784;DHT22;1907;49.238;9.262;2022-08-19T01:04:11;20.70;99.90
3784;DHT22;1907;49.238;9.262;2022-08-19T01:06:38;20.70;99.90
3784;DHT22;1907;49.238;9.262;2022-08-19T01:09:05;20.70;99.90
3784;DHT22;1907;49.238;9.262;2022-08-19T01:11:34;20.80;99.90
3784;DHT22;1907;49.238;9.262;2022-08-19T01:14:00;20.80;99.90
3784;DHT22;1907;49.238;9.262;2022-08-19T01:16:27;20.70;99.90
3784;DHT22;1907;49.238;9.262;2022-08-19T01:18:54;20.70;99.90
3784;DHT22;1907;49.238;9.262;2022-08-19T01:23:47;20.70;99.90
3784;DHT22;1907;49.238;9.262;2022-08-19T01:26:17;20.80;99.90
3784;DHT22;1907;49.238;9.262;2022-08-19T01:28:44;20.70;99.90
3784;DHT22;1907;49.238;9.262;2022-08-19T01:31:17;20.80;99.90
3784;DHT22;1907;49.238;9.262;2022-08-19T01:33:44;20.80;99.90
3784;DHT22;1907;49.238;9.262;2022-08-19T01:36:15;20.80;99.90
3784;DHT22;1907;49.238;9.262;2022-08-19T01:38:42;20.80;99.90
3784;DHT22;1907;49.238;9.262;2022-08-19T01:41:10;20.80;99.90
3784;DHT22;1907;49.238;9.262;2022-08-19T01:43:36;20.70;99.90
3784;DHT22;1907;49.238;9.262;2022-08-19T01:46:03;20.70;99.90
3784;DHT22;1907;49.238;9.262;2022-08-19T01:48:35;20.70;99.90
3784;DHT22;1907;49.238;9.262;2022-08-19T01:51:01;20.70;99.90
3784;DHT22;1907;49.238;9.262;2022-08-19T01:53:27;20.60;99.90
3784;DHT22;1907;49.238;9.262;2022-08-19T01:55:53;20.60;99.90
3784;DHT22;1907;49.238;9.262;2022-08-19T01:58:22;20.60;99.90
3784;DHT22;1907;49.238;9.262;2022-08-19T02:00:49;20.60;99.90
3784;DHT22;1907;49.238;9.262;2022-08-19T02:03:16;20.60;99.90
3784;DHT22;1907;49.238;9.262;2022-08-19T02:05:43;20.60;99.90
3784;DHT22;1907;49.238;9.262;2022-08-19T02:08:10;20.50;99.90
3784;DHT22;1907;49.238;9.262;2022-08-19T02:10:42;20.50;99.90
3784;DHT22;1907;49.238;9.262;2022-08-19T02:13:09;20.50;99.90
3784;DHT22;1907;49.238;9.262;2022-08-19T02:15:34;20.50;99.90
3784;DHT22;1907;49.238;9.262;2022-08-19T02:18:00;20.40;99.90
3784;DHT22;1907;49.238;9.262;2022-08-19T02:20:26;20.40;99.90
3784;DHT22;1907;49.238;9.262;2022-08-19T02:22:51;20.40;99.90
3784;DHT22;1907;49.238;9.262;2022-08-19T02:25:17;20.30;99.90
3784;DHT22;1907;49.238;9.262;2022-08-19T02:27:43;20.30;99.90
3784;DHT22;1907;49.238;9.262;2022-08-19T02:30:13;20.30;99.90
3784;DHT22;1907;49.238;9.262;2022-08-19T02:32:39;20.30;99.90
3784;DHT22;1907;49.238;9.262;2022-08-19T02:35:05;20.20;99.90
3784;DHT22;1907;49.238;9.262;2022-08-19T02:37:30;20.20;99.90
3784;DHT22;1907;49.238;9.262;2022-08-19T02:40:15;20.20;99.90
3784;DHT22;1907;49.238;9.262;2022-08-19T02:42:43;20.20;99.90
3784;DHT22;1907;49.238;9.262;2022-08-19T02:45:09;20.20;99.90
3784;DHT22;1907;49.238;9.262;2022-08-19T02:47:35;20.20;99.90
3784;DHT22;1907;49.238;9.262;2022-08-19T02:50:02;20.20;99.90
3784;DHT22;1907;49.238;9.262;2022-08-19T02:52:28;20.20;99.90
3784;DHT22;1907;49.238;9.262;2022-08-19T02:54:53;20.20;99.90
3784;DHT22;1907;49.238;9.262;2022-08-19T02:57:22;20.10;99.90
3784;DHT22;1907;49.238;9.262;2022-08-19T02:59:48;20.10;99.90
3784;DHT22;1907;49.238;9.262;2022-08-19T03:02:13;20.10;99.90
3784;DHT22;1907;49.238;9.262;2022-08-19T03:04:39;20.10;99.90
3784;DHT22;1907;49.238;9.262;2022-08-19T03:07:05;20.10;99.90
3784;DHT22;1907;49.238;9.262;2022-08-19T03:09:30;20.00;99.90
3784;DHT22;1907;49.238;9.262;2022-08-19T03:11:56;20.00;99.90
3784;DHT22;1907;49.238;9.262;2022-08-19T03:14:21;20.00;99.90
3784;DHT22;1907;49.238;9.262;2022-08-19T03:16:50;20.00;99.90
3784;DHT22;1907;49.238;9.262;2022-08-19T03:19:18;20.00;99.90
3784;DHT22;1907;49.238;9.262;2022-08-19T03:21:44;19.90;99.90
3784;DHT22;1907;49.238;9.262;2022-08-19T03:24:11;19.90;99.90
3784;DHT22;1907;49.238;9.262;2022-08-19T03:26:42;19.90;99.90
3784;DHT22;1907;49.238;9.262;2022-08-19T03:29:08;19.90;99.90
3784;DHT22;1907;49.238;9.262;2022-08-19T03:31:37;19.90;99.90
3784;DHT22;1907;49.238;9.262;2022-08-19T03:34:02;19.90;99.90
3784;DHT22;1907;49.238;9.262;2022-08-19T03:36:28;19.80;99.90
3784;DHT22;1907;49.238;9.262;2022-08-19T03:38:57;19.80;99.90
3784;DHT22;1907;49.238;9.262;2022-08-19T03:41:30;19.70;99.90
3784;DHT22;1907;49.238;9.262;2022-08-19T03:43:57;19.70;99.90
3784;DHT22;1907;49.238;9.262;2022-08-19T03:46:26;19.60;99.90
3784;DHT22;1907;49.238;9.262;2022-08-19T03:48:53;19.60;99.90
3784;DHT22;1907;49.238;9.262;2022-08-19T03:51:24;19.60;99.90
3784;DHT22;1907;49.238;9.262;2022-08-19T03:53:51;19.70;99.90
3784;DHT22;1907;49.238;9.262;2022-08-19T03:56:16;19.70;99.90
3784;DHT22;1907;49.238;9.262;2022-08-19T03:58:43;19.70;99.90
3784;DHT22;1907;49.238;9.262;2022-08-19T04:01:11;19.70;99.90
3784;DHT22;1907;49.238;9.262;2022-08-19T04:03:37;19.80;99.90
3784;DHT22;1907;49.238;9.262;2022-08-19T04:06:30;19.80;99.90
3784;DHT22;1907;49.238;9.262;2022-08-19T04:08:58;19.80;99.90
3784;DHT22;1907;49.238;9.262;2022-08-19T04:11:27;19.80;99.90
3784;DHT22;1907;49.238;9.262;2022-08-19T04:13:54;19.80;99.90
3784;DHT22;1907;49.238;9.262;2022-08-19T04:16:22;19.80;99.90
3784;DHT22;1907;49.238;9.262;2022-08-19T04:18:49;19.80;99.90
3784;DHT22;1907;49.238;9.262;2022-08-19T04:21:21;19.80;99.90
3784;DHT22;1907;49.238;9.262;2022-08-19T04:23:47;19.70;99.90
3784;DHT22;1907;49.238;9.262;2022-08-19T04:26:18;19.70;99.90
3784;DHT22;1907;49.238;9.262;2022-08-19T04:28:45;19.70;99.90
3784;DHT22;1907;49.238;9.262;2022-08-19T04:31:16;19.70;99.90
3784;DHT22;1907;49.238;9.262;2022-08-19T04:33:42;19.70;99.90
3784;DHT22;1907;49.238;9.262;2022-08-19T04:36:16;19.70;99.90
3784;DHT22;1907;49.238;9.262;2022-08-19T04:38:42;19.70;99.90
3784;DHT22;1907;49.238;9.262;2022-08-19T04:41:08;19.70;99.90
3784;DHT22;1907;49.238;9.262;2022-08-19T04:43:52;19.70;99.90
3784;DHT22;1907;49.238;9.262;2022-08-19T04:46:17;19.80;99.90
3784;DHT22;1907;49.238;9.262;2022-08-19T04:48:45;19.80;99.90
3784;DHT22;1907;49.238;9.262;2022-08-19T04:51:12;19.70;99.90
3784;DHT22;1907;49.238;9.262;2022-08-19T04:53:40;19.80;99.90
3784;DHT22;1907;49.238;9.262;2022-08-19T04:56:12;19.80;99.90
3784;DHT22;1907;49.238;9.262;2022-08-19T04:58:39;19.80;99.90
3784;DHT22;1907;49.238;9.262;2022-08-19T05:01:07;19.80;99.90
3784;DHT22;1907;49.238;9.262;2022-08-19T05:03:35;19.80;99.90
3784;DHT22;1907;49.238;9.262;2022-08-19T05:06:06;19.90;99.90
3784;DHT22;1907;49.238;9.262;2022-08-19T05:08:34;19.90;99.90
3784;DHT22;1907;49.238;9.262;2022-08-19T05:11:00;19.80;99.90
3784;DHT22;1907;49.238;9.262;2022-08-19T05:13:26;19.80;99.90
3784;DHT22;1907;49.238;9.262;2022-08-19T05:15:58;19.80;99.90
3784;DHT22;1907;49.238;9.262;2022-08-19T05:18:25;19.80;99.90
3784;DHT22;1907;49.238;9.262;2022-08-19T05:21:15;19.80;99.90
3784;DHT22;1907;49.238;9.262;2022-08-19T05:23:59;19.70;99.90
3784;DHT22;1907;49.238;9.262;2022-08-19T05:26:26;19.70;99.90
3784;DHT22;1907;49.238;9.262;2022-08-19T05:28:52;19.80;99.90
3784;DHT22;1907;49.238;9.262;2022-08-19T05:31:19;19.80;99.90
3784;DHT22;1907;49.238;9.262;2022-08-19T05:33:44;19.90;99.90
3784;DHT22;1907;49.238;9.262;2022-08-19T05:36:10;19.90;99.90
3784;DHT22;1907;49.238;9.262;2022-08-19T05:38:36;20.00;99.90
3784;DHT22;1907;49.238;9.262;2022-08-19T05:41:09;20.00;99.90
3784;DHT22;1907;49.238;9.262;2022-08-19T05:43:36;20.00;99.90
3784;DHT22;1907;49.238;9.262;2022-08-19T05:46:03;20.10;99.90
3784;DHT22;1907;49.238;9.262;2022-08-19T05:48:30;20.20;99.90
3784;DHT22;1907;49.238;9.262;2022-08-19T05:50:56;20.20;99.90
3784;DHT22;1907;49.238;9.262;2022-08-19T05:53:25;20.20;99.90
3784;DHT22;1907;49.238;9.262;2022-08-19T05:55:51;20.30;99.90
3784;DHT22;1907;49.238;9.262;2022-08-19T05:58:16;20.30;99.90
3784;DHT22;1907;49.238;9.262;2022-08-19T06:00:43;20.40;99.90
3784;DHT22;1907;49.238;9.262;2022-08-19T06:03:09;20.30;99.90
3784;DHT22;1907;49.238;9.262;2022-08-19T06:05:35;20.40;99.90
3784;DHT22;1907;49.238;9.262;2022-08-19T06:08:01;20.40;99.90
3784;DHT22;1907;49.238;9.262;2022-08-19T06:10:27;20.40;99.90
3784;DHT22;1907;49.238;9.262;2022-08-19T06:12:53;20.40;99.90
3784;DHT22;1907;49.238;9.262;2022-08-19T06:15:19;20.40;99.90
3784;DHT22;1907;49.238;9.262;2022-08-19T06:17:45;20.50;99.90
3784;DHT22;1907;49.238;9.262;2022-08-19T06:20:13;20.50;99.90
3784;DHT22;1907;49.238;9.262;2022-08-19T06:22:40;20.60;99.90
3784;DHT22;1907;49.238;9.262;2022-08-19T06:25:07;20.60;99.90
3784;DHT22;1907;49.238;9.262;2022-08-19T06:27:34;20.60;99.90
3784;DHT22;1907;49.238;9.262;2022-08-19T06:30:02;20.70;99.90
3784;DHT22;1907;49.238;9.262;2022-08-19T06:32:27;20.70;99.90
3784;DHT22;1907;49.238;9.262;2022-08-19T06:34:53;20.80;99.90
3784;DHT22;1907;49.238;9.262;2022-08-19T06:37:20;20.90;99.90
3784;DHT22;1907;49.238;9.262;2022-08-19T06:39:47;20.90;99.90
3784;DHT22;1907;49.238;9.262;2022-08-19T06:42:13;21.00;99.90
3784;DHT22;1907;49.238;9.262;2022-08-19T06:44:42;21.10;99.90
3784;DHT22;1907;49.238;9.262;2022-08-19T06:47:10;21.10;99.90
3784;DHT22;1907;49.238;9.262;2022-08-19T06:49:36;21.20;99.90
3784;DHT22;1907;49.238;9.262;2022-08-19T06:52:03;21.20;99.90
3784;DHT22;1907;49.238;9.262;2022-08-19T06:54:29;21.30;99.90
3784;DHT22;1907;49.238;9.262;2022-08-19T06:56:56;21.30;99.90
3784;DHT22;1907;49.238;9.262;2022-08-19T06:59:23;21.40;99.90
3784;DHT22;1907;49.238;9.262;2022-08-19T07:01:55;21.40;99.90
3784;DHT22;1907;49.238;9.262;2022-08-19T07:04:24;21.40;99.90
3784;DHT22;1907;49.238;9.262;2022-08-19T07:07:03;21.50;99.90
3784;DHT22;1907;49.238;9.262;2022-08-19T07:09:31;21.60;99.90
3784;DHT22;1907;49.238;9.262;2022-08-19T07:11:58;21.70;99.90
3784;DHT22;1907;49.238;9.262;2022-08-19T07:14:26;21.90;99.90
3784;DHT22;1907;49.238;9.262;2022-08-19T07:16:54;22.00;99.90
3784;DHT22;1907;49.238;9.262;2022-08-19T07:19:20;22.10;99.90
3784;DHT22;1907;49.238;9.262;2022-08-19T07:21:49;22.30;99.90
3784;DHT22;1907;49.238;9.262;2022-08-19T07:24:18;22.40;99.90
3784;DHT22;1907;49.238;9.262;2022-08-19T07:26:44;22.60;99.90
3784;DHT22;1907;49.238;9.262;2022-08-19T07:29:11;22.70;99.90
3784;DHT22;1907;49.238;9.262;2022-08-19T07:31:37;22.90;99.90
3784;DHT22;1907;49.238;9.262;2022-08-19T07:34:05;23.00;99.90
3784;DHT22;1907;49.238;9.262;2022-08-19T07:36:36;23.30;99.90
3784;DHT22;1907;49.238;9.262;2022-08-19T07:39:10;23.40;99.90
3784;DHT22;1907;49.238;9.262;2022-08-19T07:41:36;23.50;99.90
3784;DHT22;1907;49.238;9.262;2022-08-19T07:44:03;23.60;99.90
3784;DHT22;1907;49.238;9.262;2022-08-19T07:46:34;23.70;99.90
3784;DHT22;1907;49.238;9.262;2022-08-19T07:49:00;23.70;99.90
3784;DHT22;1907;49.238;9.262;2022-08-19T07:51:27;23.70;99.90
3784;DHT22;1907;49.238;9.262;2022-08-19T07:53:53;23.40;99.90
3784;DHT22;1907;49.238;9.262;2022-08-19T07:56:20;23.30;99.90
3784;DHT22;1907;49.238;9.262;2022-08-19T07:58:48;23.20;99.90
3784;DHT22;1907;49.238;9.262;2022-08-19T08:01:20;23.20;99.90
3784;DHT22;1907;49.238;9.262;2022-08-19T08:03:47;23.10;99.90
3784;DHT22;1907;49.238;9.262;2022-08-19T08:06:32;23.10;99.90
3784;DHT22;1907;49.238;9.262;2022-08-19T08:09:19;23.00;99.90
3784;DHT22;1907;49.238;9.262;2022-08-19T08:12:11;22.90;99.90
3784;DHT22;1907;49.238;9.262;2022-08-19T08:14:39;22.90;99.90
3784;DHT22;1907;49.238;9.262;2022-08-19T08:17:08;22.90;99.90
3784;DHT22;1907;49.238;9.262;2022-08-19T08:19:35;22.90;99.90
3784;DHT22;1907;49.238;9.262;2022-08-19T08:22:02;22.90;99.90
3784;DHT22;1907;49.238;9.262;2022-08-19T08:24:30;22.80;99.90
3784;DHT22;1907;49.238;9.262;2022-08-19T08:26:57;22.70;99.90
3784;DHT22;1907;49.238;9.262;2022-08-19T08:29:25;22.70;99.90
3784;DHT22;1907;49.238;9.262;2022-08-19T08:31:52;22.70;99.90
3784;DHT22;1907;49.238;9.262;2022-08-19T08:34:19;22.80;99.90
3784;DHT22;1907;49.238;9.262;2022-08-19T08:36:46;22.90;99.90
3784;DHT22;1907;49.238;9.262;2022-08-19T08:39:16;23.00;99.90
3784;DHT22;1907;49.238;9.262;2022-08-19T08:45:13;23.40;99.90
3784;DHT22;1907;49.238;9.262;2022-08-19T08:47:35;23.60;99.90
3784;DHT22;1907;49.238;9.262;2022-08-19T08:50:10;23.70;99.90
3784;DHT22;1907;49.238;9.262;2022-08-19T08:52:44;23.90;99.90
3784;DHT22;1907;49.238;9.262;2022-08-19T08:55:15;23.90;99.90
3784;DHT22;1907;49.238;9.262;2022-08-19T09:00:19;24.00;99.90
3784;DHT22;1907;49.238;9.262;2022-08-19T09:02:46;23.90;99.90
3784;DHT22;1907;49.238;9.262;2022-08-19T09:05:13;23.80;99.90
3784;DHT22;1907;49.238;9.262;2022-08-19T09:10:38;23.70;99.90
3784;DHT22;1907;49.238;9.262;2022-08-19T09:16:16;23.70;99.90
3784;DHT22;1907;49.238;9.262;2022-08-19T09:18:55;23.70;99.90
3784;DHT22;1907;49.238;9.262;2022-08-19T09:21:23;23.70;99.90
3784;DHT22;1907;49.238;9.262;2022-08-19T09:23:50;23.70;99.90
3784;DHT22;1907;49.238;9.262;2022-08-19T09:26:20;23.70;99.90
3784;DHT22;1907;49.238;9.262;2022-08-19T09:28:48;23.60;99.90
3784;DHT22;1907;49.238;9.262;2022-08-19T09:31:16;23.60;99.90
3784;DHT22;1907;49.238;9.262;2022-08-19T09:33:41;23.50;99.90
3784;DHT22;1907;49.238;9.262;2022-08-19T09:36:11;23.50;99.90
3784;DHT22;1907;49.238;9.262;2022-08-19T09:38:37;23.60;99.90
3784;DHT22;1907;49.238;9.262;2022-08-19T09:41:08;23.90;99.90
3784;DHT22;1907;49.238;9.262;2022-08-19T09:43:34;24.10;99.90
3784;DHT22;1907;49.238;9.262;2022-08-19T09:46:06;24.30;99.90
3784;DHT22;1907;49.238;9.262;2022-08-19T09:48:33;24.50;99.90
3784;DHT22;1907;49.238;9.262;2022-08-19T09:51:06;24.60;99.90
3784;DHT22;1907;49.238;9.262;2022-08-19T09:53:34;24.40;99.90
3784;DHT22;1907;49.238;9.262;2022-08-19T09:56:00;24.20;99.90
3784;DHT22;1907;49.238;9.262;2022-08-19T09:58:26;24.10;99.90
3784;DHT22;1907;49.238;9.262;2022-08-19T10:00:54;24.10;99.90
3784;DHT22;1907;49.238;9.262;2022-08-19T10:03:20;24.10;99.90
3784;DHT22;1907;49.238;9.262;2022-08-19T10:05:45;24.20;99.90
3784;DHT22;1907;49.238;9.262;2022-08-19T10:08:24;24.30;99.90
3784;DHT22;1907;49.238;9.262;2022-08-19T10:10:51;24.50;99.90
3784;DHT22;1907;49.238;9.262;2022-08-19T10:13:19;24.70;99.90
3784;DHT22;1907;49.238;9.262;2022-08-19T10:15:48;24.90;99.90
3784;DHT22;1907;49.238;9.262;2022-08-19T10:18:17;25.00;99.90
3784;DHT22;1907;49.238;9.262;2022-08-19T10:20:44;25.20;99.90
3784;DHT22;1907;49.238;9.262;2022-08-19T10:23:11;25.50;99.90
3784;DHT22;1907;49.238;9.262;2022-08-19T10:25:37;25.70;99.90
3784;DHT22;1907;49.238;9.262;2022-08-19T10:28:04;26.10;99.90
3784;DHT22;1907;49.238;9.262;2022-08-19T10:30:31;26.40;99.90
3784;DHT22;1907;49.238;9.262;2022-08-19T10:32:57;26.40;99.90
3784;DHT22;1907;49.238;9.262;2022-08-19T10:35:23;26.60;99.90
3784;DHT22;1907;49.238;9.262;2022-08-19T10:37:52;26.70;99.90
3784;DHT22;1907;49.238;9.262;2022-08-19T10:40:17;26.90;99.90
3784;DHT22;1907;49.238;9.262;2022-08-19T10:42:43;27.00;99.90
3784;DHT22;1907;49.238;9.262;2022-08-19T10:45:10;26.80;99.90
3784;DHT22;1907;49.238;9.262;2022-08-19T10:47:36;26.60;99.90
3784;DHT22;1907;49.238;9.262;2022-08-19T10:50:02;26.20;99.90
3784;DHT22;1907;49.238;9.262;2022-08-19T10:52:48;26.00;99.90
3784;DHT22;1907;49.238;9.262;2022-08-19T10:55:14;25.80;99.90
3784;DHT22;1907;49.238;9.262;2022-08-19T10:57:58;25.70;99.90
3784;DHT22;1907;49.238;9.262;2022-08-19T11:00:25;25.50;99.90
3784;DHT22;1907;49.238;9.262;2022-08-19T11:02:51;25.50;99.90
3784;DHT22;1907;49.238;9.262;2022-08-19T11:05:18;25.50;99.90
3784;DHT22;1907;49.238;9.262;2022-08-19T11:07:44;25.70;99.90
3784;DHT22;1907;49.238;9.262;2022-08-19T11:10:13;25.80;99.90
3784;DHT22;1907;49.238;9.262;2022-08-19T11:12:40;26.10;99.90
3784;DHT22;1907;49.238;9.262;2022-08-19T11:15:08;26.10;99.90
3784;DHT22;1907;49.238;9.262;2022-08-19T11:17:39;26.20;99.90
3784;DHT22;1907;49.238;9.262;2022-08-19T11:20:10;26.30;99.90
3784;DHT22;1907;49.238;9.262;2022-08-19T11:22:35;26.20;99.90
3784;DHT22;1907;49.238;9.262;2022-08-19T11:25:01;26.10;99.90
3784;DHT22;1907;49.238;9.262;2022-08-19T11:27:27;26.20;99.90
3784;DHT22;1907;49.238;9.262;2022-08-19T11:29:54;26.40;99.90
3784;DHT22;1907;49.238;9.262;2022-08-19T11:32:19;26.50;99.90
3784;DHT22;1907;49.238;9.262;2022-08-19T11:34:45;26.50;99.90
3784;DHT22;1907;49.238;9.262;2022-08-19T11:37:11;26.40;99.90
3784;DHT22;1907;49.238;9.262;2022-08-19T11:39:36;26.30;99.90
3784;DHT22;1907;49.238;9.262;2022-08-19T11:42:05;26.20;99.90
3784;DHT22;1907;49.238;9.262;2022-08-19T11:44:50;26.10;99.90
3784;DHT22;1907;49.238;9.262;2022-08-19T11:47:15;25.90;99.90
3784;DHT22;1907;49.238;9.262;2022-08-19T11:49:41;25.90;99.90
3784;DHT22;1907;49.238;9.262;2022-08-19T11:52:07;25.80;99.90
3784;DHT22;1907;49.238;9.262;2022-08-19T11:54:33;25.70;99.90
3784;DHT22;1907;49.238;9.262;2022-08-19T11:56:59;25.60;99.90
3784;DHT22;1907;49.238;9.262;2022-08-19T11:59:26;25.60;99.90
3784;DHT22;1907;49.238;9.262;2022-08-19T12:01:52;25.50;99.90
3784;DHT22;1907;49.238;9.262;2022-08-19T12:04:18;25.40;99.90
3784;DHT22;1907;49.238;9.262;2022-08-19T12:06:43;25.30;99.90
3784;DHT22;1907;49.238;9.262;2022-08-19T12:09:10;25.40;99.90
3784;DHT22;1907;49.238;9.262;2022-08-19T12:11:37;25.40;99.90
3784;DHT22;1907;49.238;9.262;2022-08-19T12:14:03;25.50;99.90
3784;DHT22;1907;49.238;9.262;2022-08-19T12:16:30;25.60;99.90
3784;DHT22;1907;49.238;9.262;2022-08-19T12:18:57;25.70;99.90
3784;DHT22;1907;49.238;9.262;2022-08-19T12:21:26;25.90;99.90
3784;DHT22;1907;49.238;9.262;2022-08-19T12:23:56;26.20;99.90
3784;DHT22;1907;49.238;9.262;2022-08-19T12:26:23;26.60;99.90
3784;DHT22;1907;49.238;9.262;2022-08-19T12:28:48;26.90;99.90
3784;DHT22;1907;49.238;9.262;2022-08-19T12:31:14;27.30;99.90
3784;DHT22;1907;49.238;9.262;2022-08-19T12:33:41;27.60;99.90
3784;DHT22;1907;49.238;9.262;2022-08-19T12:36:09;27.80;99.90
3784;DHT22;1907;49.238;9.262;2022-08-19T12:38:36;28.00;99.10
3784;DHT22;1907;49.238;9.262;2022-08-19T12:41:02;28.30;97.80
3784;DHT22;1907;49.238;9.262;2022-08-19T12:43:35;28.70;98.20
3784;DHT22;1907;49.238;9.262;2022-08-19T12:46:03;28.70;98.00
3784;DHT22;1907;49.238;9.262;2022-08-19T12:48:30;28.80;97.50
3784;DHT22;1907;49.238;9.262;2022-08-19T12:50:55;28.80;96.30
3784;DHT22;1907;49.238;9.262;2022-08-19T12:53:25;29.00;96.10
3784;DHT22;1907;49.238;9.262;2022-08-19T12:55:57;29.40;95.30
3784;DHT22;1907;49.238;9.262;2022-08-19T12:58:25;29.70;94.20
3784;DHT22;1907;49.238;9.262;2022-08-19T13:00:51;29.70;93.50
3784;DHT22;1907;49.238;9.262;2022-08-19T13:03:17;29.40;94.00
3784;DHT22;1907;49.238;9.262;2022-08-19T13:05:42;28.90;93.70
3784;DHT22;1907;49.238;9.262;2022-08-19T13:08:08;28.50;94.30
3784;DHT22;1907;49.238;9.262;2022-08-19T13:10:35;28.00;94.50
3784;DHT22;1907;49.238;9.262;2022-08-19T13:13:05;27.60;95.10
3784;DHT22;1907;49.238;9.262;2022-08-19T13:15:37;27.20;95.50
3784;DHT22;1907;49.238;9.262;2022-08-19T13:18:05;27.00;96.30
3784;DHT22;1907;49.238;9.262;2022-08-19T13:20:31;26.90;95.90
3784;DHT22;1907;49.238;9.262;2022-08-19T13:22:56;26.70;95.70
3784;DHT22;1907;49.238;9.262;2022-08-19T13:25:23;26.60;95.90
3784;DHT22;1907;49.238;9.262;2022-08-19T13:27:49;26.60;97.00
3784;DHT22;1907;49.238;9.262;2022-08-19T13:30:17;26.60;97.10
3784;DHT22;1907;49.238;9.262;2022-08-19T13:33:02;26.70;96.40
3784;DHT22;1907;49.238;9.262;2022-08-19T13:35:56;26.80;97.10
3784;DHT22;1907;49.238;9.262;2022-08-19T13:38:22;26.90;96.70
3784;DHT22;1907;49.238;9.262;2022-08-19T13:40:50;27.00;97.20
3784;DHT22;1907;49.238;9.262;2022-08-19T13:43:17;27.10;97.30
3784;DHT22;1907;49.238;9.262;2022-08-19T13:45:44;27.30;96.80
3784;DHT22;1907;49.238;9.262;2022-08-19T13:48:10;27.30;96.10
3784;DHT22;1907;49.238;9.262;2022-08-19T13:50:41;27.30;96.70
3784;DHT22;1907;49.238;9.262;2022-08-19T13:53:07;27.20;96.50
3784;DHT22;1907;49.238;9.262;2022-08-19T13:55:34;27.10;97.30
3784;DHT22;1907;49.238;9.262;2022-08-19T13:58:01;27.10;97.20
3784;DHT22;1907;49.238;9.262;2022-08-19T14:00:33;27.00;98.30
3784;DHT22;1907;49.238;9.262;2022-08-19T14:02:59;26.90;98.40
3784;DHT22;1907;49.238;9.262;2022-08-19T14:05:27;26.70;99.90
3784;DHT22;1907;49.238;9.262;2022-08-19T14:07:54;26.30;99.90
3784;DHT22;1907;49.238;9.262;2022-08-19T14:10:21;25.90;99.90
3784;DHT22;1907;49.238;9.262;2022-08-19T14:12:47;25.60;99.90
3784;DHT22;1907;49.238;9.262;2022-08-19T14:15:14;25.30;99.90
3784;DHT22;1907;49.238;9.262;2022-08-19T14:17:42;25.10;99.90
3784;DHT22;1907;49.238;9.262;2022-08-19T14:20:09;25.00;99.90
3784;DHT22;1907;49.238;9.262;2022-08-19T14:22:40;24.90;99.90
3784;DHT22;1907;49.238;9.262;2022-08-19T14:25:08;24.90;99.90
3784;DHT22;1907;49.238;9.262;2022-08-19T14:27:38;24.80;99.90
3784;DHT22;1907;49.238;9.262;2022-08-19T14:30:05;24.80;99.90
3784;DHT22;1907;49.238;9.262;2022-08-19T14:32:32;24.80;99.90
3784;DHT22;1907;49.238;9.262;2022-08-19T14:34:58;24.80;99.90
3784;DHT22;1907;49.238;9.262;2022-08-19T14:37:23;24.80;99.90
3784;DHT22;1907;49.238;9.262;2022-08-19T14:39:49;24.60;99.90
3784;DHT22;1907;49.238;9.262;2022-08-19T14:42:15;24.40;99.90
3784;DHT22;1907;49.238;9.262;2022-08-19T14:44:41;24.20;99.90
3784;DHT22;1907;49.238;9.262;2022-08-19T14:47:07;24.10;99.90
3784;DHT22;1907;49.238;9.262;2022-08-19T14:49:34;24.00;99.90
3784;DHT22;1907;49.238;9.262;2022-08-19T14:52:00;23.90;99.90
3784;DHT22;1907;49.238;9.262;2022-08-19T14:54:25;23.90;99.90
3784;DHT22;1907;49.238;9.262;2022-08-19T14:56:51;24.00;99.90
3784;DHT22;1907;49.238;9.262;2022-08-19T14:59:17;24.10;99.90
3784;DHT22;1907;49.238;9.262;2022-08-19T15:01:42;24.10;99.90
3784;DHT22;1907;49.238;9.262;2022-08-19T15:04:09;24.20;99.90
3784;DHT22;1907;49.238;9.262;2022-08-19T15:06:35;24.20;99.90
3784;DHT22;1907;49.238;9.262;2022-08-19T15:09:01;24.20;99.90
3784;DHT22;1907;49.238;9.262;2022-08-19T15:11:28;24.10;99.90
3784;DHT22;1907;49.238;9.262;2022-08-19T15:13:55;24.10;99.90
3784;DHT22;1907;49.238;9.262;2022-08-19T15:16:22;24.00;99.90
3784;DHT22;1907;49.238;9.262;2022-08-19T15:18:50;23.90;99.90
3784;DHT22;1907;49.238;9.262;2022-08-19T15:21:17;23.90;99.90
3784;DHT22;1907;49.238;9.262;2022-08-19T15:23:44;23.90;99.90
3784;DHT22;1907;49.238;9.262;2022-08-19T15:26:10;23.90;99.90
3784;DHT22;1907;49.238;9.262;2022-08-19T15:28:36;23.90;99.90
3784;DHT22;1907;49.238;9.262;2022-08-19T15:31:02;23.90;99.90
3784;DHT22;1907;49.238;9.262;2022-08-19T15:33:31;24.00;99.90
3784;DHT22;1907;49.238;9.262;2022-08-19T15:35:57;24.20;99.90
3784;DHT22;1907;49.238;9.262;2022-08-19T15:38:23;24.40;99.90
3784;DHT22;1907;49.238;9.262;2022-08-19T15:40:51;24.60;99.90
3784;DHT22;1907;49.238;9.262;2022-08-19T15:43:18;24.80;99.90
3784;DHT22;1907;49.238;9.262;2022-08-19T15:45:47;24.90;99.90
3784;DHT22;1907;49.238;9.262;2022-08-19T15:48:12;25.10;99.90
3784;DHT22;1907;49.238;9.262;2022-08-19T15:50:38;25.10;99.90
3784;DHT22;1907;49.238;9.262;2022-08-19T15:53:09;25.20;99.90
3784;DHT22;1907;49.238;9.262;2022-08-19T15:55:41;25.30;99.90
3784;DHT22;1907;49.238;9.262;2022-08-19T15:58:12;25.30;99.90
3784;DHT22;1907;49.238;9.262;2022-08-19T16:01:00;25.40;99.90
3784;DHT22;1907;49.238;9.262;2022-08-19T16:03:45;25.40;99.90
3784;DHT22;1907;49.238;9.262;2022-08-19T16:06:30;25.50;99.90
3784;DHT22;1907;49.238;9.262;2022-08-19T16:08:58;25.60;99.90
3784;DHT22;1907;49.238;9.262;2022-08-19T16:11:28;25.60;99.90
3784;DHT22;1907;49.238;9.262;2022-08-19T16:13:55;25.70;99.90
3784;DHT22;1907;49.238;9.262;2022-08-19T16:16:26;25.80;99.90
3784;DHT22;1907;49.238;9.262;2022-08-19T16:18:58;25.90;99.90
3784;DHT22;1907;49.238;9.262;2022-08-19T16:21:26;26.00;99.90